CheckWX is a tool to help pilots better visualize weather data.  It is not intended as a substitute for an official pre-flight weather briefing.

15:25:06 UTC

KAWO METAR
Arlington Municipal Airport
Arlington, Washington, USA
Current

29 mins ago

KAWO 261456Z AUTO 00000KT 10SM OVC014 11/09 A2990 RMK AO2 SLP128 T01060094 50002 $
Observed
May-26 @ 14:56 UTC
Visibility
10 SM
Flight Rules
MVFR
Cloud Levels
  • Overcast at 1,400' AGL
Temperature
11°C / 52°F
Dewpoint
C / 48°F
Humidity
88%
Altimeter
29.9" Hg
Pressure
1012.52 hPa
Previous

1 hour ago

KAWO 261356Z AUTO 00000KT 10SM FEW005 OVC017 10/09 A2989 RMK AO2 SLP128 T01000094 $
Observed
May-26 @ 13:56 UTC
Visibility
10 SM
Flight Rules
MVFR
Cloud Levels
  • Few at 500' AGL
  • Overcast at 1,700' AGL
Temperature
10°C / 50°F
Dewpoint
C / 48°F
Humidity
94%
Altimeter
29.89" Hg
Pressure
1012.22 hPa
Previous

2 hours ago

KAWO 261346Z AUTO 00000KT 10SM FEW005 OVC017 11/09 A2989 RMK AO2 $
Observed
May-26 @ 13:46 UTC
Visibility
10 SM
Flight Rules
MVFR
Cloud Levels
  • Few at 500' AGL
  • Overcast at 1,700' AGL
Temperature
11°C / 52°F
Dewpoint
C / 48°F
Humidity
88%
Altimeter
29.89" Hg
Pressure
1012.22 hPa